x

Venice, Fl (venf1) Weather Station

10:00am - Sat 28th Feb 2015 All times are EST. -5 hours from GMT.

  • Wind
    15mph, 20mph gusts
  • Sea Temp 62°f
  • Air Temp 65°f
  • Sea Pressure 1025.2mb
  • Venice, Fl
  • Venice, Fl

More Historic Weather Station data

Upgrade to MSW Pro to gain access to the past 30 days of data for over 8000 Wavebouys and Weather Stations around the globe.

Join Pro

Comparision Forecast

View Surf forecast
   
Sat 02/28 10:00am 15 20 mph 1025.2mb 62f 65f
9:00am 14 17 mph 1024.6mb 62f 62f
8:00am 14 17 mph 1024.1mb 62f 61f
7:00am 14 18 mph 1023.3mb 62f 60f
6:00am 15 20 mph 1022.4mb 62f 59f
5:00am 15 20 mph 1021.9mb 62f 59f
4:00am 14 18 mph 1022mb 62f 58f
3:00am 13 17 mph 1022.2mb 62f 58f
2:00am 9 11 mph 1022.5mb 62f 58f
1:00am 11 16 mph 1022.6mb 62f 58f
12:00am 13 15 mph 1023mb 62f 57f
Fri 02/27 11:00pm 14 20 mph 1022.4mb 63f 57f
10:00pm 18 23 mph 1022.2mb 63f 56f
9:00pm 16 22 mph 1022.2mb 63f 56f
8:00pm 15 20 mph 1021.6mb 63f 57f
7:00pm 11 15 mph 1021.5mb 63f 56f
6:00pm 15 18 mph 1021.2mb 63f 56f
5:00pm 15 17 mph 1020.9mb 63f 56f
4:00pm 11 14 mph 1020.8mb 63f 56f
3:00pm 8 10 mph 1020.8mb 63f 57f
2:00pm 9 13 mph 1021.2mb 64f 58f
1:00pm 11 14 mph 1021.8mb 64f 59f
12:00pm 11 16 mph 1022mb 64f 59f
11:00am 15 18 mph 1022.4mb 64f 59f
10:00am 11 15 mph 1022mb 63f 58f
9:00am 10 13 mph 1021.5mb 63f 58f
8:00am 9 11 mph 1020.3mb 63f 57f
7:00am 7 9 mph 1019.4mb 63f 56f
6:00am 5 7 mph 1018.7mb 63f 56f
5:00am 8 9 mph 1017.9mb 64f 56f
4:00am 9 11 mph 1017.5mb 64f 56f
3:00am 7 8 mph 1017.4mb 64f 57f
2:00am 13 15 mph 1016.4mb 64f 57f
1:00am 14 16 mph 1017.1mb 64f 58f
12:00am 15 16 mph 1017.6mb 64f 58f
Thu 02/26 11:00pm 11 13 mph 1017.5mb 64f 59f
10:00pm 13 15 mph 1017.3mb 64f 60f
9:00pm 13 15 mph 1016.2mb 64f 61f
8:00pm 16 18 mph 1015.3mb 64f 61f
7:00pm 11 13 mph 1014.5mb 64f 62f
6:00pm 17 18 mph 1013.6mb 64f 61f
5:00pm 13 14 mph 1012.9mb 64f 62f
4:00pm 15
mph
1012.5mb 64f 62f
3:00pm 16 17 mph 1011.9mb 64f 62f
2:00pm 10 11 mph 1011.7mb 64f 63f
1:00pm 7 8 mph 1012mb 64f 64f
12:00pm 8 9 mph 1012mb 64f 65f
11:00am 13 15 mph 1012mb 64f 65f
10:00am 10 11 mph 1011.8mb 64f 65f
9:00am 15 17 mph 1011.4mb 64f 64f
8:00am 8 9 mph 1010.1mb 64f 64f
7:00am 10 11 mph 1010mb 64f 64f
6:00am 17 20 mph 1008.3mb 64f 68f
5:00am 16 17 mph 1007.6mb 64f 67f
4:00am 20 22 mph 1006.7mb 64f 67f
3:00am 20 23 mph 1007.1mb 64f 66f
2:00am 17 18 mph 1007.8mb 64f 66f
1:00am 18 20 mph 1008mb 64f 66f
12:00am 20 22 mph 1008.6mb 64f 67f
Wed 02/25 11:00pm 21 23 mph 1008.6mb 64f 67f
10:00pm 10 11 mph 1008.8mb 64f 64f
9:00pm 13 14 mph 1009.1mb 64f 64f
8:00pm 15
mph
1009.1mb 64f 65f
7:00pm 16 18 mph 1009mb 64f 65f
6:00pm 17 18 mph 1008.9mb 64f 64f
5:00pm 16 18 mph 1009.3mb 64f 65f
4:00pm 11 13 mph 1010mb 64f 64f
3:00pm 14 15 mph 1010.4mb 63f 65f
2:00pm 14 15 mph 1011.2mb 64f 65f
1:00pm 17 18 mph 1012.4mb 64f 65f
12:00pm 15 16 mph 1013.4mb 63f 64f
11:00am 16 17 mph 1013.9mb 63f 65f
10:00am 14 15 mph 1014.1mb 63f 65f
9:00am 14 15 mph 1013.9mb 63f 64f
8:00am 11 13 mph 1013.7mb 63f 65f
7:00am 10
mph
1013.5mb 63f 64f
6:00am 8 9 mph 1013.1mb 63f 64f
5:00am 6
mph
1012.6mb 63f 64f
4:00am 9
mph
1012.6mb 63f 65f
3:00am 7 8 mph 1013.1mb 63f 65f
2:00am 8 9 mph 1013.5mb 63f 63f
1:00am 10
mph
1013.9mb 63f 64f
12:00am 7
mph
1014.7mb 63f 64f
Tue 02/24 11:00pm 7
mph
1014.7mb 63f 64f
10:00pm 6
mph
1015.4mb 63f 64f
9:00pm 10 11 mph 1015.5mb 62f 63f
8:00pm 7 8 mph 1015.8mb 63f 63f
7:00pm 11
mph
1015.6mb 63f 64f
6:00pm 5 6 mph 1015.7mb 62f 65f
5:00pm 6
mph
1016.1mb 62f 64f